Terminal Aerodrome Forecast
Issued by NWS Tampa Bay Area, FL

Home | Current Version | Previous Version | Text Only | Print | Product List | Glossary On
Versions: 1 2 3 4 5 6 7 8 9 10 11 12 13
000
FTUS42 KTBW 231100
TAFSRQ
TAF
KSRQ 231128Z 2312/2412 VRB03KT P6SM SKC
     FM231500 36005KT P6SM SCT030 SCT250
     FM231800 31008KT P6SM VCTS SCT040CB SCT120 BKN250
     FM240000 35004KT P6SM FEW035 BKN250
     FM240400 07003KT P6SM SCT250=

USA.gov is the U.S. government's official web portal to all federal, state and local government web resources and services.